sensor_id;sensor_type;location;lat;lon;timestamp;P1;durP1;ratioP1;P2;durP2;ratioP2
29546;SDS011;40782;47.264;11.330;2022-11-15T00:00:00;12.65;;;9.30;;
29546;SDS011;40782;47.264;11.330;2022-11-15T00:02:27;16.63;;;10.35;;
29546;SDS011;40782;47.264;11.330;2022-11-15T00:04:54;12.85;;;9.13;;
29546;SDS011;40782;47.264;11.330;2022-11-15T00:07:21;14.73;;;10.48;;
29546;SDS011;40782;47.264;11.330;2022-11-15T00:09:49;14.20;;;9.95;;
29546;SDS011;40782;47.264;11.330;2022-11-15T00:12:16;12.13;;;9.13;;
29546;SDS011;40782;47.264;11.330;2022-11-15T00:14:43;13.90;;;9.45;;
29546;SDS011;40782;47.264;11.330;2022-11-15T00:17:12;14.05;;;9.75;;
29546;SDS011;40782;47.264;11.330;2022-11-15T00:19:39;13.00;;;9.35;;
29546;SDS011;40782;47.264;11.330;2022-11-15T00:22:06;11.20;;;8.65;;
29546;SDS011;40782;47.264;11.330;2022-11-15T00:24:33;13.88;;;9.35;;
29546;SDS011;40782;47.264;11.330;2022-11-15T00:27:00;13.30;;;9.25;;
29546;SDS011;40782;47.264;11.330;2022-11-15T00:29:27;16.23;;;9.48;;
29546;SDS011;40782;47.264;11.330;2022-11-15T00:31:54;13.77;;;9.50;;
29546;SDS011;40782;47.264;11.330;2022-11-15T00:34:23;12.45;;;8.95;;
29546;SDS011;40782;47.264;11.330;2022-11-15T00:36:50;12.02;;;9.25;;
29546;SDS011;40782;47.264;11.330;2022-11-15T00:39:17;14.93;;;10.13;;
29546;SDS011;40782;47.264;11.330;2022-11-15T00:41:44;15.23;;;10.57;;
29546;SDS011;40782;47.264;11.330;2022-11-15T00:44:11;18.95;;;11.15;;
29546;SDS011;40782;47.264;11.330;2022-11-15T00:46:39;13.00;;;10.40;;
29546;SDS011;40782;47.264;11.330;2022-11-15T00:49:06;14.00;;;9.88;;
29546;SDS011;40782;47.264;11.330;2022-11-15T00:51:34;17.73;;;11.18;;
29546;SDS011;40782;47.264;11.330;2022-11-15T00:54:02;15.05;;;10.02;;
29546;SDS011;40782;47.264;11.330;2022-11-15T00:56:29;14.73;;;10.48;;
29546;SDS011;40782;47.264;11.330;2022-11-15T00:58:56;15.52;;;10.57;;
29546;SDS011;40782;47.264;11.330;2022-11-15T01:01:23;14.77;;;9.88;;
29546;SDS011;40782;47.264;11.330;2022-11-15T01:03:50;13.65;;;9.85;;
29546;SDS011;40782;47.264;11.330;2022-11-15T01:06:17;15.15;;;9.85;;
29546;SDS011;40782;47.264;11.330;2022-11-15T01:08:46;11.40;;;9.82;;
29546;SDS011;40782;47.264;11.330;2022-11-15T01:11:13;12.10;;;9.10;;
29546;SDS011;40782;47.264;11.330;2022-11-15T01:13:40;13.90;;;9.45;;
29546;SDS011;40782;47.264;11.330;2022-11-15T01:16:08;14.88;;;10.05;;
29546;SDS011;40782;47.264;11.330;2022-11-15T01:18:37;12.57;;;9.82;;
29546;SDS011;40782;47.264;11.330;2022-11-15T01:21:06;14.98;;;9.90;;
29546;SDS011;40782;47.264;11.330;2022-11-15T01:23:34;12.55;;;10.13;;
29546;SDS011;40782;47.264;11.330;2022-11-15T01:26:04;13.35;;;8.75;;
29546;SDS011;40782;47.264;11.330;2022-11-15T01:28:33;13.10;;;9.57;;
29546;SDS011;40782;47.264;11.330;2022-11-15T01:31:03;13.75;;;9.10;;
29546;SDS011;40782;47.264;11.330;2022-11-15T01:33:33;13.82;;;9.20;;
29546;SDS011;40782;47.264;11.330;2022-11-15T01:36:03;11.75;;;8.40;;
29546;SDS011;40782;47.264;11.330;2022-11-15T01:38:31;11.20;;;8.25;;
29546;SDS011;40782;47.264;11.330;2022-11-15T01:40:58;14.45;;;9.02;;
29546;SDS011;40782;47.264;11.330;2022-11-15T01:43:27;11.57;;;9.10;;
29546;SDS011;40782;47.264;11.330;2022-11-15T01:45:56;11.70;;;8.73;;
29546;SDS011;40782;47.264;11.330;2022-11-15T01:48:28;11.50;;;8.63;;
29546;SDS011;40782;47.264;11.330;2022-11-15T01:50:58;10.68;;;8.95;;
29546;SDS011;40782;47.264;11.330;2022-11-15T01:53:28;12.88;;;8.55;;
29546;SDS011;40782;47.264;11.330;2022-11-15T01:55:57;12.85;;;9.88;;
29546;SDS011;40782;47.264;11.330;2022-11-15T01:58:30;13.32;;;9.95;;
29546;SDS011;40782;47.264;11.330;2022-11-15T02:00:57;14.38;;;9.32;;
29546;SDS011;40782;47.264;11.330;2022-11-15T02:03:26;13.80;;;9.25;;
29546;SDS011;40782;47.264;11.330;2022-11-15T02:05:59;12.02;;;9.40;;
29546;SDS011;40782;47.264;11.330;2022-11-15T02:08:26;13.63;;;9.77;;
29546;SDS011;40782;47.264;11.330;2022-11-15T02:10:53;11.70;;;8.73;;
29546;SDS011;40782;47.264;11.330;2022-11-15T02:13:21;10.98;;;8.90;;
29546;SDS011;40782;47.264;11.330;2022-11-15T02:15:52;11.15;;;8.93;;
29546;SDS011;40782;47.264;11.330;2022-11-15T02:18:30;10.75;;;9.23;;
29546;SDS011;40782;47.264;11.330;2022-11-15T02:27:01;13.63;;;9.75;;
29546;SDS011;40782;47.264;11.330;2022-11-15T02:32:36;11.48;;;8.52;;
29546;SDS011;40782;47.264;11.330;2022-11-15T02:35:11;11.77;;;8.55;;
29546;SDS011;40782;47.264;11.330;2022-11-15T02:37:47;12.80;;;8.02;;
29546;SDS011;40782;47.264;11.330;2022-11-15T02:40:24;10.82;;;8.27;;
29546;SDS011;40782;47.264;11.330;2022-11-15T02:43:02;11.68;;;8.15;;
29546;SDS011;40782;47.264;11.330;2022-11-15T02:45:51;12.32;;;8.40;;
29546;SDS011;40782;47.264;11.330;2022-11-15T02:48:24;10.13;;;8.10;;
29546;SDS011;40782;47.264;11.330;2022-11-15T02:50:52;10.18;;;7.60;;
29546;SDS011;40782;47.264;11.330;2022-11-15T02:53:23;8.73;;;7.20;;
29546;SDS011;40782;47.264;11.330;2022-11-15T02:55:51;8.45;;;6.82;;
29546;SDS011;40782;47.264;11.330;2022-11-15T02:58:27;8.63;;;6.95;;
29546;SDS011;40782;47.264;11.330;2022-11-15T03:01:12;10.73;;;7.40;;
29546;SDS011;40782;47.264;11.330;2022-11-15T03:03:54;9.35;;;6.60;;
29546;SDS011;40782;47.264;11.330;2022-11-15T03:06:30;8.23;;;6.97;;
29546;SDS011;40782;47.264;11.330;2022-11-15T03:09:07;12.30;;;7.88;;
29546;SDS011;40782;47.264;11.330;2022-11-15T03:11:40;8.90;;;7.63;;
29546;SDS011;40782;47.264;11.330;2022-11-15T03:14:16;9.30;;;7.47;;
29546;SDS011;40782;47.264;11.330;2022-11-15T03:16:48;10.52;;;8.18;;
29546;SDS011;40782;47.264;11.330;2022-11-15T03:19:28;10.43;;;8.63;;
29546;SDS011;40782;47.264;11.330;2022-11-15T03:22:00;10.20;;;8.63;;
29546;SDS011;40782;47.264;11.330;2022-11-15T03:24:31;11.40;;;8.53;;
29546;SDS011;40782;47.264;11.330;2022-11-15T03:27:01;12.00;;;8.32;;
29546;SDS011;40782;47.264;11.330;2022-11-15T03:29:30;13.48;;;8.70;;
29546;SDS011;40782;47.264;11.330;2022-11-15T03:32:00;9.55;;;8.13;;
29546;SDS011;40782;47.264;11.330;2022-11-15T03:34:34;10.18;;;8.20;;
29546;SDS011;40782;47.264;11.330;2022-11-15T03:37:04;13.27;;;9.43;;
29546;SDS011;40782;47.264;11.330;2022-11-15T03:39:33;11.70;;;8.63;;
29546;SDS011;40782;47.264;11.330;2022-11-15T03:42:04;10.80;;;7.80;;
29546;SDS011;40782;47.264;11.330;2022-11-15T03:44:40;9.45;;;8.35;;
29546;SDS011;40782;47.264;11.330;2022-11-15T03:47:14;13.50;;;9.05;;
29546;SDS011;40782;47.264;11.330;2022-11-15T03:49:46;10.90;;;8.80;;
29546;SDS011;40782;47.264;11.330;2022-11-15T03:52:17;11.95;;;8.60;;
29546;SDS011;40782;47.264;11.330;2022-11-15T03:54:49;9.00;;;7.55;;
29546;SDS011;40782;47.264;11.330;2022-11-15T03:57:17;10.60;;;8.20;;
29546;SDS011;40782;47.264;11.330;2022-11-15T03:59:44;10.23;;;8.35;;
29546;SDS011;40782;47.264;11.330;2022-11-15T04:02:13;10.82;;;8.40;;
29546;SDS011;40782;47.264;11.330;2022-11-15T04:04:40;11.48;;;8.70;;
29546;SDS011;40782;47.264;11.330;2022-11-15T04:07:09;9.70;;;8.55;;
29546;SDS011;40782;47.264;11.330;2022-11-15T04:09:36;16.05;;;8.95;;
29546;SDS011;40782;47.264;11.330;2022-11-15T04:12:24;9.75;;;8.27;;
29546;SDS011;40782;47.264;11.330;2022-11-15T04:14:57;12.70;;;8.70;;
29546;SDS011;40782;47.264;11.330;2022-11-15T04:17:34;12.13;;;9.32;;
29546;SDS011;40782;47.264;11.330;2022-11-15T04:20:03;11.52;;;8.30;;
29546;SDS011;40782;47.264;11.330;2022-11-15T04:22:53;13.63;;;9.45;;
29546;SDS011;40782;47.264;11.330;2022-11-15T04:25:37;12.38;;;9.02;;
29546;SDS011;40782;47.264;11.330;2022-11-15T04:28:05;11.57;;;8.95;;
29546;SDS011;40782;47.264;11.330;2022-11-15T04:30:32;14.02;;;10.00;;
29546;SDS011;40782;47.264;11.330;2022-11-15T04:33:00;14.05;;;9.43;;
29546;SDS011;40782;47.264;11.330;2022-11-15T04:35:27;16.10;;;9.75;;
29546;SDS011;40782;47.264;11.330;2022-11-15T04:37:56;14.52;;;8.68;;
29546;SDS011;40782;47.264;11.330;2022-11-15T04:40:22;11.02;;;7.90;;
29546;SDS011;40782;47.264;11.330;2022-11-15T04:42:50;13.68;;;8.20;;
29546;SDS011;40782;47.264;11.330;2022-11-15T04:45:17;11.68;;;8.73;;
29546;SDS011;40782;47.264;11.330;2022-11-15T04:47:44;9.55;;;8.40;;
29546;SDS011;40782;47.264;11.330;2022-11-15T04:50:12;11.27;;;9.30;;
29546;SDS011;40782;47.264;11.330;2022-11-15T04:52:40;11.63;;;8.93;;
29546;SDS011;40782;47.264;11.330;2022-11-15T04:55:09;13.40;;;9.38;;
29546;SDS011;40782;47.264;11.330;2022-11-15T04:57:36;12.68;;;8.93;;
29546;SDS011;40782;47.264;11.330;2022-11-15T05:00:04;10.93;;;8.60;;
29546;SDS011;40782;47.264;11.330;2022-11-15T05:02:37;13.05;;;8.52;;
29546;SDS011;40782;47.264;11.330;2022-11-15T05:05:22;11.25;;;8.77;;
29546;SDS011;40782;47.264;11.330;2022-11-15T05:07:50;11.48;;;9.27;;
29546;SDS011;40782;47.264;11.330;2022-11-15T05:10:19;9.65;;;7.75;;
29546;SDS011;40782;47.264;11.330;2022-11-15T05:12:46;11.10;;;8.35;;
29546;SDS011;40782;47.264;11.330;2022-11-15T05:15:13;9.27;;;7.78;;
29546;SDS011;40782;47.264;11.330;2022-11-15T05:17:40;10.25;;;7.75;;
29546;SDS011;40782;47.264;11.330;2022-11-15T05:20:08;8.30;;;7.25;;
29546;SDS011;40782;47.264;11.330;2022-11-15T05:22:36;8.68;;;7.78;;
29546;SDS011;40782;47.264;11.330;2022-11-15T05:25:03;8.43;;;7.20;;
29546;SDS011;40782;47.264;11.330;2022-11-15T05:27:33;10.07;;;7.13;;
29546;SDS011;40782;47.264;11.330;2022-11-15T05:30:01;10.50;;;7.82;;
29546;SDS011;40782;47.264;11.330;2022-11-15T05:32:28;11.70;;;9.60;;
29546;SDS011;40782;47.264;11.330;2022-11-15T05:34:55;11.07;;;8.75;;
29546;SDS011;40782;47.264;11.330;2022-11-15T05:37:22;10.75;;;7.72;;
29546;SDS011;40782;47.264;11.330;2022-11-15T05:39:49;20.30;;;15.30;;
29546;SDS011;40782;47.264;11.330;2022-11-15T05:42:16;17.23;;;12.35;;
29546;SDS011;40782;47.264;11.330;2022-11-15T05:44:47;13.85;;;10.32;;
29546;SDS011;40782;47.264;11.330;2022-11-15T05:47:16;10.23;;;8.02;;
29546;SDS011;40782;47.264;11.330;2022-11-15T05:49:46;11.20;;;8.05;;
29546;SDS011;40782;47.264;11.330;2022-11-15T05:52:17;12.02;;;8.25;;
29546;SDS011;40782;47.264;11.330;2022-11-15T05:54:46;11.00;;;8.38;;
29546;SDS011;40782;47.264;11.330;2022-11-15T05:57:14;9.98;;;7.88;;
29546;SDS011;40782;47.264;11.330;2022-11-15T05:59:42;11.18;;;8.35;;
29546;SDS011;40782;47.264;11.330;2022-11-15T06:02:11;10.15;;;7.43;;
29546;SDS011;40782;47.264;11.330;2022-11-15T06:04:38;12.70;;;9.30;;
29546;SDS011;40782;47.264;11.330;2022-11-15T06:07:05;9.88;;;8.88;;
29546;SDS011;40782;47.264;11.330;2022-11-15T06:09:32;11.52;;;8.32;;
29546;SDS011;40782;47.264;11.330;2022-11-15T06:11:59;18.10;;;12.55;;
29546;SDS011;40782;47.264;11.330;2022-11-15T06:14:26;19.77;;;14.05;;
29546;SDS011;40782;47.264;11.330;2022-11-15T06:16:54;14.45;;;11.70;;
29546;SDS011;40782;47.264;11.330;2022-11-15T06:19:22;18.60;;;12.07;;
29546;SDS011;40782;47.264;11.330;2022-11-15T06:21:49;14.55;;;9.80;;
29546;SDS011;40782;47.264;11.330;2022-11-15T06:24:17;11.52;;;8.20;;
29546;SDS011;40782;47.264;11.330;2022-11-15T06:26:44;10.98;;;8.40;;
29546;SDS011;40782;47.264;11.330;2022-11-15T06:29:11;16.52;;;8.95;;
29546;SDS011;40782;47.264;11.330;2022-11-15T06:31:38;10.48;;;7.25;;
29546;SDS011;40782;47.264;11.330;2022-11-15T06:34:05;12.10;;;8.23;;
29546;SDS011;40782;47.264;11.330;2022-11-15T06:36:35;12.98;;;7.43;;
29546;SDS011;40782;47.264;11.330;2022-11-15T06:39:03;10.75;;;8.20;;
29546;SDS011;40782;47.264;11.330;2022-11-15T06:41:33;12.18;;;8.57;;
29546;SDS011;40782;47.264;11.330;2022-11-15T06:44:00;12.75;;;7.47;;
29546;SDS011;40782;47.264;11.330;2022-11-15T06:46:28;11.27;;;8.15;;
29546;SDS011;40782;47.264;11.330;2022-11-15T06:48:55;13.07;;;8.10;;
29546;SDS011;40782;47.264;11.330;2022-11-15T06:51:22;18.35;;;8.32;;
29546;SDS011;40782;47.264;11.330;2022-11-15T06:53:50;13.88;;;8.32;;
29546;SDS011;40782;47.264;11.330;2022-11-15T06:56:17;13.02;;;8.27;;
29546;SDS011;40782;47.264;11.330;2022-11-15T06:58:45;13.88;;;8.40;;
29546;SDS011;40782;47.264;11.330;2022-11-15T07:01:12;11.65;;;8.15;;
29546;SDS011;40782;47.264;11.330;2022-11-15T07:03:40;16.77;;;9.00;;
29546;SDS011;40782;47.264;11.330;2022-11-15T07:06:08;12.40;;;8.40;;
29546;SDS011;40782;47.264;11.330;2022-11-15T07:08:36;17.17;;;8.95;;
29546;SDS011;40782;47.264;11.330;2022-11-15T07:11:05;13.98;;;9.45;;
29546;SDS011;40782;47.264;11.330;2022-11-15T07:13:34;15.93;;;9.27;;
29546;SDS011;40782;47.264;11.330;2022-11-15T07:16:02;18.67;;;9.23;;
29546;SDS011;40782;47.264;11.330;2022-11-15T07:18:30;13.93;;;9.38;;
29546;SDS011;40782;47.264;11.330;2022-11-15T07:21:00;21.50;;;9.80;;
29546;SDS011;40782;47.264;11.330;2022-11-15T07:23:29;15.70;;;9.38;;
29546;SDS011;40782;47.264;11.330;2022-11-15T07:25:56;11.00;;;8.13;;
29546;SDS011;40782;47.264;11.330;2022-11-15T07:28:25;19.45;;;10.77;;
29546;SDS011;40782;47.264;11.330;2022-11-15T07:30:53;22.73;;;11.75;;
29546;SDS011;40782;47.264;11.330;2022-11-15T07:33:21;14.15;;;9.15;;
29546;SDS011;40782;47.264;11.330;2022-11-15T07:35:48;17.63;;;9.45;;
29546;SDS011;40782;47.264;11.330;2022-11-15T07:38:15;22.30;;;9.27;;
29546;SDS011;40782;47.264;11.330;2022-11-15T07:40:45;14.65;;;8.68;;
29546;SDS011;40782;47.264;11.330;2022-11-15T07:43:13;13.73;;;7.70;;
29546;SDS011;40782;47.264;11.330;2022-11-15T07:45:42;51.60;;;12.55;;
29546;SDS011;40782;47.264;11.330;2022-11-15T07:48:10;13.25;;;8.82;;
29546;SDS011;40782;47.264;11.330;2022-11-15T07:50:40;44.15;;;11.82;;
29546;SDS011;40782;47.264;11.330;2022-11-15T07:53:07;35.90;;;10.75;;
29546;SDS011;40782;47.264;11.330;2022-11-15T07:55:35;10.27;;;8.20;;
29546;SDS011;40782;47.264;11.330;2022-11-15T07:58:03;11.18;;;6.72;;
29546;SDS011;40782;47.264;11.330;2022-11-15T08:00:31;13.63;;;7.70;;
29546;SDS011;40782;47.264;11.330;2022-11-15T08:03:04;14.35;;;8.38;;
29546;SDS011;40782;47.264;11.330;2022-11-15T08:05:32;12.07;;;7.50;;
29546;SDS011;40782;47.264;11.330;2022-11-15T08:08:00;13.13;;;7.65;;
29546;SDS011;40782;47.264;11.330;2022-11-15T08:10:28;31.42;;;9.52;;
29546;SDS011;40782;47.264;11.330;2022-11-15T08:12:59;20.55;;;8.75;;
29546;SDS011;40782;47.264;11.330;2022-11-15T08:15:27;9.57;;;7.53;;
29546;SDS011;40782;47.264;11.330;2022-11-15T08:17:55;15.40;;;7.22;;
29546;SDS011;40782;47.264;11.330;2022-11-15T08:20:24;48.53;;;12.77;;
29546;SDS011;40782;47.264;11.330;2022-11-15T08:22:54;8.60;;;6.13;;
29546;SDS011;40782;47.264;11.330;2022-11-15T08:25:21;13.07;;;7.10;;
29546;SDS011;40782;47.264;11.330;2022-11-15T08:27:51;9.63;;;7.00;;
29546;SDS011;40782;47.264;11.330;2022-11-15T08:30:19;11.55;;;7.07;;
29546;SDS011;40782;47.264;11.330;2022-11-15T08:32:46;10.07;;;6.50;;
29546;SDS011;40782;47.264;11.330;2022-11-15T08:35:13;7.55;;;6.00;;
29546;SDS011;40782;47.264;11.330;2022-11-15T08:37:42;10.32;;;6.03;;
29546;SDS011;40782;47.264;11.330;2022-11-15T08:40:09;8.00;;;5.40;;
29546;SDS011;40782;47.264;11.330;2022-11-15T08:42:37;10.73;;;5.45;;
29546;SDS011;40782;47.264;11.330;2022-11-15T08:45:04;8.98;;;5.68;;
29546;SDS011;40782;47.264;11.330;2022-11-15T08:47:32;7.53;;;5.80;;
29546;SDS011;40782;47.264;11.330;2022-11-15T08:50:00;14.55;;;10.10;;
29546;SDS011;40782;47.264;11.330;2022-11-15T08:52:27;14.25;;;9.18;;
29546;SDS011;40782;47.264;11.330;2022-11-15T08:54:56;14.10;;;8.10;;
29546;SDS011;40782;47.264;11.330;2022-11-15T08:57:23;11.30;;;6.03;;
29546;SDS011;40782;47.264;11.330;2022-11-15T08:59:50;9.15;;;5.60;;
29546;SDS011;40782;47.264;11.330;2022-11-15T09:02:17;8.02;;;6.05;;
29546;SDS011;40782;47.264;11.330;2022-11-15T09:04:44;10.05;;;5.47;;
29546;SDS011;40782;47.264;11.330;2022-11-15T09:07:12;5.97;;;5.10;;
29546;SDS011;40782;47.264;11.330;2022-11-15T09:09:40;7.30;;;4.60;;
29546;SDS011;40782;47.264;11.330;2022-11-15T09:12:09;6.00;;;4.65;;
29546;SDS011;40782;47.264;11.330;2022-11-15T09:14:36;12.82;;;8.55;;
29546;SDS011;40782;47.264;11.330;2022-11-15T09:17:03;8.65;;;5.18;;
29546;SDS011;40782;47.264;11.330;2022-11-15T09:19:33;10.05;;;6.20;;
29546;SDS011;40782;47.264;11.330;2022-11-15T09:22:00;10.38;;;6.40;;
29546;SDS011;40782;47.264;11.330;2022-11-15T09:24:28;9.75;;;4.50;;
29546;SDS011;40782;47.264;11.330;2022-11-15T09:26:55;6.63;;;3.95;;
29546;SDS011;40782;47.264;11.330;2022-11-15T09:29:23;4.20;;;3.80;;
29546;SDS011;40782;47.264;11.330;2022-11-15T09:31:51;7.47;;;4.03;;
29546;SDS011;40782;47.264;11.330;2022-11-15T09:34:18;7.78;;;4.65;;
29546;SDS011;40782;47.264;11.330;2022-11-15T09:36:46;5.43;;;3.80;;
29546;SDS011;40782;47.264;11.330;2022-11-15T09:39:14;5.22;;;3.60;;
29546;SDS011;40782;47.264;11.330;2022-11-15T09:44:50;5.78;;;3.75;;
29546;SDS011;40782;47.264;11.330;2022-11-15T09:47:34;5.97;;;4.00;;
29546;SDS011;40782;47.264;11.330;2022-11-15T09:50:15;6.72;;;3.88;;
29546;SDS011;40782;47.264;11.330;2022-11-15T09:52:44;7.45;;;3.88;;
29546;SDS011;40782;47.264;11.330;2022-11-15T09:55:12;5.90;;;3.25;;
29546;SDS011;40782;47.264;11.330;2022-11-15T09:57:49;3.05;;;2.80;;
29546;SDS011;40782;47.264;11.330;2022-11-15T10:00:22;5.43;;;3.70;;
29546;SDS011;40782;47.264;11.330;2022-11-15T10:05:42;3.03;;;2.67;;
29546;SDS011;40782;47.264;11.330;2022-11-15T10:08:13;6.18;;;2.85;;
29546;SDS011;40782;47.264;11.330;2022-11-15T10:11:03;3.60;;;3.30;;
29546;SDS011;40782;47.264;11.330;2022-11-15T10:13:33;2.88;;;2.67;;
29546;SDS011;40782;47.264;11.330;2022-11-15T10:16:04;8.30;;;3.70;;
29546;SDS011;40782;47.264;11.330;2022-11-15T10:18:55;5.75;;;3.17;;
29546;SDS011;40782;47.264;11.330;2022-11-15T10:21:29;5.70;;;3.10;;
29546;SDS011;40782;47.264;11.330;2022-11-15T10:24:16;3.35;;;3.05;;
29546;SDS011;40782;47.264;11.330;2022-11-15T10:26:46;5.85;;;2.90;;
29546;SDS011;40782;47.264;11.330;2022-11-15T10:29:18;3.72;;;3.05;;
29546;SDS011;40782;47.264;11.330;2022-11-15T10:31:47;8.38;;;3.78;;
29546;SDS011;40782;47.264;11.330;2022-11-15T10:34:15;11.43;;;3.97;;
29546;SDS011;40782;47.264;11.330;2022-11-15T10:36:45;3.90;;;3.60;;
29546;SDS011;40782;47.264;11.330;2022-11-15T10:39:12;4.97;;;3.00;;
29546;SDS011;40782;47.264;11.330;2022-11-15T10:41:41;5.07;;;3.55;;
29546;SDS011;40782;47.264;11.330;2022-11-15T10:44:19;5.40;;;2.75;;
29546;SDS011;40782;47.264;11.330;2022-11-15T10:50:04;2.85;;;2.50;;
29546;SDS011;40782;47.264;11.330;2022-11-15T10:52:34;4.57;;;2.40;;
29546;SDS011;40782;47.264;11.330;2022-11-15T10:55:17;4.80;;;2.88;;
29546;SDS011;40782;47.264;11.330;2022-11-15T10:57:49;3.28;;;2.20;;
29546;SDS011;40782;47.264;11.330;2022-11-15T11:03:05;4.32;;;2.35;;
29546;SDS011;40782;47.264;11.330;2022-11-15T11:05:48;3.25;;;2.10;;
29546;SDS011;40782;47.264;11.330;2022-11-15T11:08:28;1.95;;;1.85;;
29546;SDS011;40782;47.264;11.330;2022-11-15T11:10:57;3.53;;;2.20;;
29546;SDS011;40782;47.264;11.330;2022-11-15T11:13:26;3.03;;;2.33;;
29546;SDS011;40782;47.264;11.330;2022-11-15T11:15:56;2.55;;;2.15;;
29546;SDS011;40782;47.264;11.330;2022-11-15T11:18:36;3.22;;;2.55;;
29546;SDS011;40782;47.264;11.330;2022-11-15T11:21:13;3.13;;;2.50;;
29546;SDS011;40782;47.264;11.330;2022-11-15T11:23:45;3.33;;;2.40;;
29546;SDS011;40782;47.264;11.330;2022-11-15T11:26:24;3.95;;;2.30;;
29546;SDS011;40782;47.264;11.330;2022-11-15T11:29:02;3.60;;;2.28;;
29546;SDS011;40782;47.264;11.330;2022-11-15T11:31:41;2.25;;;2.05;;
29546;SDS011;40782;47.264;11.330;2022-11-15T11:34:15;3.15;;;1.95;;
29546;SDS011;40782;47.264;11.330;2022-11-15T11:36:59;3.45;;;2.10;;
29546;SDS011;40782;47.264;11.330;2022-11-15T11:39:32;2.50;;;2.00;;
29546;SDS011;40782;47.264;11.330;2022-11-15T11:42:11;2.38;;;2.17;;
29546;SDS011;40782;47.264;11.330;2022-11-15T11:44:47;2.67;;;2.00;;
29546;SDS011;40782;47.264;11.330;2022-11-15T11:47:23;2.00;;;1.60;;
29546;SDS011;40782;47.264;11.330;2022-11-15T11:49:56;2.85;;;1.95;;
29546;SDS011;40782;47.264;11.330;2022-11-15T11:52:28;4.03;;;1.92;;
29546;SDS011;40782;47.264;11.330;2022-11-15T11:55:01;3.50;;;1.52;;
29546;SDS011;40782;47.264;11.330;2022-11-15T11:57:33;3.03;;;1.60;;
29546;SDS011;40782;47.264;11.330;2022-11-15T12:00:12;3.05;;;1.98;;
29546;SDS011;40782;47.264;11.330;2022-11-15T12:02:44;2.78;;;1.70;;
29546;SDS011;40782;47.264;11.330;2022-11-15T12:05:18;4.80;;;2.10;;
29546;SDS011;40782;47.264;11.330;2022-11-15T12:07:54;6.00;;;1.77;;
29546;SDS011;40782;47.264;11.330;2022-11-15T12:10:28;1.58;;;1.48;;
29546;SDS011;40782;47.264;11.330;2022-11-15T12:13:00;2.67;;;1.95;;
29546;SDS011;40782;47.264;11.330;2022-11-15T12:15:31;4.72;;;2.35;;
29546;SDS011;40782;47.264;11.330;2022-11-15T12:18:03;2.85;;;1.95;;
29546;SDS011;40782;47.264;11.330;2022-11-15T12:20:32;2.55;;;1.80;;
29546;SDS011;40782;47.264;11.330;2022-11-15T12:23:05;3.50;;;1.98;;
29546;SDS011;40782;47.264;11.330;2022-11-15T12:25:40;3.90;;;2.30;;
29546;SDS011;40782;47.264;11.330;2022-11-15T12:28:13;1.70;;;1.60;;
29546;SDS011;40782;47.264;11.330;2022-11-15T12:30:46;2.20;;;1.92;;
29546;SDS011;40782;47.264;11.330;2022-11-15T12:33:34;3.85;;;1.88;;
29546;SDS011;40782;47.264;11.330;2022-11-15T12:36:04;5.70;;;1.88;;
29546;SDS011;40782;47.264;11.330;2022-11-15T12:38:53;3.27;;;1.80;;
29546;SDS011;40782;47.264;11.330;2022-11-15T12:41:22;4.35;;;2.30;;
29546;SDS011;40782;47.264;11.330;2022-11-15T12:43:50;3.35;;;2.30;;
29546;SDS011;40782;47.264;11.330;2022-11-15T12:46:21;5.28;;;1.90;;
29546;SDS011;40782;47.264;11.330;2022-11-15T12:49:10;5.18;;;2.42;;
29546;SDS011;40782;47.264;11.330;2022-11-15T12:52:07;6.45;;;2.42;;
29546;SDS011;40782;47.264;11.330;2022-11-15T12:54:51;3.38;;;1.95;;
29546;SDS011;40782;47.264;11.330;2022-11-15T12:57:48;2.45;;;1.80;;
29546;SDS011;40782;47.264;11.330;2022-11-15T13:03:25;4.43;;;2.13;;
29546;SDS011;40782;47.264;11.330;2022-11-15T13:05:56;1.95;;;1.63;;
29546;SDS011;40782;47.264;11.330;2022-11-15T13:08:35;2.78;;;2.00;;
29546;SDS011;40782;47.264;11.330;2022-11-15T13:14:19;2.33;;;2.05;;
29546;SDS011;40782;47.264;11.330;2022-11-15T13:17:26;7.53;;;2.60;;
29546;SDS011;40782;47.264;11.330;2022-11-15T13:22:50;2.42;;;1.98;;
29546;SDS011;40782;47.264;11.330;2022-11-15T13:25:19;4.13;;;2.08;;
29546;SDS011;40782;47.264;11.330;2022-11-15T13:28:10;4.50;;;1.73;;
29546;SDS011;40782;47.264;11.330;2022-11-15T13:30:50;4.10;;;1.75;;
29546;SDS011;40782;47.264;11.330;2022-11-15T13:33:19;1.60;;;1.50;;
29546;SDS011;40782;47.264;11.330;2022-11-15T13:35:49;3.40;;;2.15;;
29546;SDS011;40782;47.264;11.330;2022-11-15T13:38:19;3.55;;;1.92;;
29546;SDS011;40782;47.264;11.330;2022-11-15T13:40:53;5.57;;;2.25;;
29546;SDS011;40782;47.264;11.330;2022-11-15T13:43:25;2.08;;;1.90;;
29546;SDS011;40782;47.264;11.330;2022-11-15T13:46:06;5.05;;;1.90;;
29546;SDS011;40782;47.264;11.330;2022-11-15T13:48:37;1.98;;;1.58;;
29546;SDS011;40782;47.264;11.330;2022-11-15T13:51:04;4.28;;;2.05;;
29546;SDS011;40782;47.264;11.330;2022-11-15T13:56:05;5.15;;;2.25;;
29546;SDS011;40782;47.264;11.330;2022-11-15T13:58:33;5.95;;;2.22;;
29546;SDS011;40782;47.264;11.330;2022-11-15T14:01:04;6.82;;;2.70;;
29546;SDS011;40782;47.264;11.330;2022-11-15T14:03:33;2.08;;;1.98;;
29546;SDS011;40782;47.264;11.330;2022-11-15T14:06:07;5.20;;;2.28;;
29546;SDS011;40782;47.264;11.330;2022-11-15T14:08:37;2.40;;;1.85;;
29546;SDS011;40782;47.264;11.330;2022-11-15T14:11:08;5.35;;;2.10;;
29546;SDS011;40782;47.264;11.330;2022-11-15T14:13:40;6.90;;;2.20;;
29546;SDS011;40782;47.264;11.330;2022-11-15T14:16:16;5.40;;;2.08;;
29546;SDS011;40782;47.264;11.330;2022-11-15T14:18:45;4.40;;;2.03;;
29546;SDS011;40782;47.264;11.330;2022-11-15T14:21:14;3.70;;;1.63;;
29546;SDS011;40782;47.264;11.330;2022-11-15T14:23:42;4.45;;;2.05;;
29546;SDS011;40782;47.264;11.330;2022-11-15T14:26:11;6.80;;;1.85;;
29546;SDS011;40782;47.264;11.330;2022-11-15T14:28:54;6.05;;;2.17;;
29546;SDS011;40782;47.264;11.330;2022-11-15T14:31:22;2.42;;;2.00;;
29546;SDS011;40782;47.264;11.330;2022-11-15T14:33:49;5.10;;;2.10;;
29546;SDS011;40782;47.264;11.330;2022-11-15T14:36:17;4.78;;;1.80;;
29546;SDS011;40782;47.264;11.330;2022-11-15T14:38:46;3.42;;;1.85;;
29546;SDS011;40782;47.264;11.330;2022-11-15T14:41:17;3.97;;;2.20;;
29546;SDS011;40782;47.264;11.330;2022-11-15T14:43:46;6.72;;;2.53;;
29546;SDS011;40782;47.264;11.330;2022-11-15T14:46:13;5.55;;;2.80;;
29546;SDS011;40782;47.264;11.330;2022-11-15T14:48:42;2.80;;;2.13;;
29546;SDS011;40782;47.264;11.330;2022-11-15T14:51:10;8.27;;;2.22;;
29546;SDS011;40782;47.264;11.330;2022-11-15T14:53:39;5.13;;;2.42;;
29546;SDS011;40782;47.264;11.330;2022-11-15T14:56:06;5.38;;;2.40;;
29546;SDS011;40782;47.264;11.330;2022-11-15T14:58:34;5.90;;;2.17;;
29546;SDS011;40782;47.264;11.330;2022-11-15T15:01:02;4.78;;;2.40;;
29546;SDS011;40782;47.264;11.330;2022-11-15T15:03:35;7.65;;;3.20;;
29546;SDS011;40782;47.264;11.330;2022-11-15T15:06:04;5.25;;;3.13;;
29546;SDS011;40782;47.264;11.330;2022-11-15T15:08:33;10.98;;;4.25;;
29546;SDS011;40782;47.264;11.330;2022-11-15T15:11:00;7.28;;;3.38;;
29546;SDS011;40782;47.264;11.330;2022-11-15T15:13:27;6.85;;;3.15;;
29546;SDS011;40782;47.264;11.330;2022-11-15T15:15:55;4.85;;;2.97;;
29546;SDS011;40782;47.264;11.330;2022-11-15T15:18:22;10.75;;;3.10;;